Charlotte Douglas International Airport
KCLT : now visible

Airfield :











YOU CAN JOIN US ON...

 
LOGIN :

Register | Disclaimer

   EN    FR    IT 

 









Legend :    VFR   Marginal VFR   IFR   Intensive IFR   Very Intensive IFR
Visi :
Ceiling :
>= 8 km
>= 3000ft
5 to 8 km
1000 to 3000 ft
1500m to 5 km
500 to 1000 ft
800 to 1500m
200 to 500 ft
< 800m
< 200 ft
Symbols :   Thunderstorms  Fog  Heavy snow  Heavy precipitations  Wind > 20 kt






- Airport Elevation : 748 ft
- IATA code : CLT


KCLT - Charlotte Douglas International

CURRENT METAR :
  • 172052Z 10005KT 10SM SCT160 BKN250 08/M11 A3061 RMK AO2 SLP366 T00831106 55009

EXPIRED METARs :
  • 171952Z 03009KT 10SM FEW200 SCT250 09/M10 A3060 RMK AO2 SLP363 T00941100
  • 171852Z 01008KT 10SM FEW200 SCT250 09/M10 A3062 RMK AO2 SLP370 T00891100

TAF KCLT
Valid from the 17 at 20:00 until the 19 at 00:00 UTC


172010Z 1720/1824 05008KT P6SM SCT250
FM180800 11004KT P6SM FEW050 BKN150
FM181300 14004KT P6SM BKN050
PROB30 1816/1818 4SM -RA BR OVC020
FM181800 20004KT 5SM -RA BR SCT009 OVC015
FM182300 23006KT 5SM BR VCSH OVC008



MET'MAP, your aeronautical weather chart ! - Copyright ORBIFLY December 2007 - Disclaimer

ORBIFLY MET'MAP TEAM :

Programming & Development : Alexandra Zaïnal
Concept & original design : Baudouin d'Aumeries
Assistance for programming : Marc-Olivier Méhu
Technical & hardware support : Manuel Goepfert

Contact : metmap@orbifly.com




SOURCES & CREDITS :

   NOAA       Earth
Advisory